Time;durP1;ratioP1;P1;durP2;ratioP2;P2;SDS_P1;SDS_P2;PMS_P1;PMS_P2;Temp;Humidity;BMP_temperature;BMP_pressure;BME280_temperature;BME280_humidity;BME280_pressure;Samples;Min_cycle;Max_cycle;Signal;HPM_P1;HPM_P2
2021/11/29 00:00:12;;;;;;;22.90;12.70;;;5.70;98.20;;;;;;4929398;29;20032;-60
2021/11/29 00:02:39;;;;;;;24.90;13.85;;;5.80;98.20;;;;;;4932532;29;20032;-60
2021/11/29 00:05:05;;;;;;;23.80;13.95;;;5.80;98.20;;;;;;4945922;29;20032;-60
2021/11/29 00:07:31;;;;;;;23.55;12.98;;;5.90;98.20;;;;;;4930340;29;20044;-61
2021/11/29 00:09:56;;;;;;;25.30;12.82;;;5.90;98.20;;;;;;4933116;29;20032;-61
2021/11/29 00:12:22;;;;;;;23.20;13.52;;;6.00;98.10;;;;;;4932187;29;20035;-61
2021/11/29 00:14:49;;;;;;;24.27;13.27;;;6.00;98.10;;;;;;4932821;29;20497;-61
2021/11/29 00:17:15;;;;;;;24.65;14.90;;;6.10;98.20;;;;;;4931790;29;20027;-61
2021/11/29 00:19:41;;;;;;;24.98;13.07;;;6.10;98.10;;;;;;4934028;29;20095;-61
2021/11/29 00:22:06;;;;;;;21.70;12.63;;;6.10;98.00;;;;;;4930554;29;20032;-61
2021/11/29 00:24:32;;;;;;;23.33;12.45;;;6.10;97.90;;;;;;4933870;29;20094;-61
2021/11/29 00:26:58;;;;;;;22.67;12.98;;;6.10;97.90;;;;;;4931774;29;20040;-61
2021/11/29 00:29:23;;;;;;;23.73;13.55;;;6.20;97.80;;;;;;4933427;29;20036;-61
2021/11/29 00:31:49;;;;;;;22.65;13.68;;;6.20;97.70;;;;;;4932428;29;20431;-61
2021/11/29 00:34:14;;;;;;;21.90;13.13;;;6.20;97.70;;;;;;4933239;29;20034;-61
2021/11/29 00:36:40;;;;;;;22.80;13.25;;;6.20;97.70;;;;;;4928854;29;20030;-61
2021/11/29 00:39:06;;;;;;;24.20;14.30;;;6.20;97.70;;;;;;4932066;29;20487;-61
2021/11/29 00:41:32;;;;;;;26.92;15.68;;;6.20;97.60;;;;;;4931598;29;20042;-61
2021/11/29 00:43:57;;;;;;;26.00;14.88;;;6.20;97.70;;;;;;4933418;29;20032;-60
2021/11/29 00:46:23;;;;;;;27.23;15.70;;;6.30;97.70;;;;;;4934585;29;20060;-61
2021/11/29 00:48:48;;;;;;;27.90;14.25;;;6.30;97.60;;;;;;4936639;29;20396;-60
2021/11/29 00:51:14;;;;;;;27.33;16.10;;;6.30;97.70;;;;;;4935035;29;20428;-60
2021/11/29 00:53:40;;;;;;;27.65;16.50;;;6.20;97.60;;;;;;4935042;29;20066;-61
2021/11/29 00:56:05;;;;;;;27.95;16.13;;;6.20;97.60;;;;;;4936037;29;20063;-61
2021/11/29 00:58:31;;;;;;;32.22;15.32;;;6.20;97.70;;;;;;4923019;29;20031;-61
2021/11/29 01:00:57;;;;;;;30.00;15.60;;;6.20;97.70;;;;;;4926381;29;20446;-61
2021/11/29 01:03:23;;;;;;;26.90;15.02;;;6.20;97.70;;;;;;4934707;29;20028;-61
2021/11/29 01:05:48;;;;;;;30.20;17.80;;;6.20;97.70;;;;;;4934712;29;20043;-61
2021/11/29 01:08:14;;;;;;;30.27;16.02;;;6.20;97.80;;;;;;4935008;29;20038;-61
2021/11/29 01:10:40;;;;;;;30.58;17.35;;;6.20;97.70;;;;;;4934765;29;20495;-61
2021/11/29 01:13:05;;;;;;;31.85;16.70;;;6.30;97.70;;;;;;4933248;29;20031;-61
2021/11/29 01:15:37;;;;;;;29.50;17.10;;;6.30;97.80;;;;;;4936271;29;20032;-61
2021/11/29 01:18:09;;;;;;;33.10;17.65;;;6.30;97.80;;;;;;4926072;29;20028;-61
2021/11/29 01:20:37;;;;;;;29.58;16.35;;;6.30;97.90;;;;;;4934745;29;20032;-61
2021/11/29 01:23:04;;;;;;;30.30;15.68;;;6.40;98.00;;;;;;4934596;29;20087;-61
2021/11/29 01:25:30;;;;;;;30.90;17.30;;;6.40;97.90;;;;;;4933866;29;20035;-61
2021/11/29 01:27:55;;;;;;;29.48;16.10;;;6.40;97.80;;;;;;4935690;29;20119;-61
2021/11/29 01:30:21;;;;;;;30.38;16.60;;;6.40;97.80;;;;;;4933845;29;20531;-61
2021/11/29 01:32:47;;;;;;;30.70;16.23;;;6.40;97.80;;;;;;4934386;29;20091;-61
2021/11/29 01:35:12;;;;;;;29.30;16.52;;;6.50;97.70;;;;;;4934696;29;20472;-61
2021/11/29 01:37:39;;;;;;;28.10;16.10;;;6.50;97.70;;;;;;4934627;29;20031;-61
2021/11/29 01:40:07;;;;;;;32.85;17.45;;;6.50;97.70;;;;;;4935244;29;20028;-61
2021/11/29 01:42:33;;;;;;;31.58;16.67;;;6.50;97.70;;;;;;4933434;29;20372;-61
2021/11/29 01:44:59;;;;;;;32.15;16.52;;;6.50;97.70;;;;;;4935950;29;20030;-61
2021/11/29 01:47:25;;;;;;;31.13;16.38;;;6.50;97.70;;;;;;4932871;29;20075;-61
2021/11/29 01:49:51;;;;;;;30.35;17.13;;;6.50;97.70;;;;;;4934552;29;20395;-61
2021/11/29 01:52:17;;;;;;;31.92;15.80;;;6.60;97.70;;;;;;4934556;29;20039;-61
2021/11/29 01:54:43;;;;;;;30.08;16.23;;;6.60;97.70;;;;;;4935811;29;20031;-61
2021/11/29 01:57:09;;;;;;;31.75;16.25;;;6.60;97.60;;;;;;4932006;29;20369;-61
2021/11/29 01:59:34;;;;;;;32.03;16.75;;;6.60;97.50;;;;;;4935912;29;20083;-61
2021/11/29 02:02:00;;;;;;;29.65;15.63;;;6.60;97.50;;;;;;4933289;29;20042;-61
2021/11/29 02:04:26;;;;;;;27.77;15.45;;;6.60;97.40;;;;;;4936062;29;20023;-61
2021/11/29 02:06:52;;;;;;;30.02;15.93;;;6.50;97.50;;;;;;4929746;29;20435;-61
2021/11/29 02:09:18;;;;;;;28.52;15.80;;;6.60;97.50;;;;;;4933760;29;20031;-61
2021/11/29 02:11:43;;;;;;;31.45;17.48;;;6.60;97.50;;;;;;4934656;29;20032;-61
2021/11/29 02:14:09;;;;;;;30.67;17.13;;;6.60;97.50;;;;;;4933542;29;20435;-61
2021/11/29 02:16:35;;;;;;;32.60;17.67;;;6.60;97.50;;;;;;4933676;29;20107;-61
2021/11/29 02:19:02;;;;;;;33.90;17.98;;;6.60;97.50;;;;;;4933323;29;20055;-61
2021/11/29 02:21:31;;;;;;;37.83;18.73;;;6.60;97.50;;;;;;4929815;29;20039;-61
2021/11/29 02:24:10;;;;;;;34.92;17.42;;;6.60;97.50;;;;;;4935224;29;20035;-61
2021/11/29 02:26:37;;;;;;;33.22;17.27;;;6.60;97.50;;;;;;4933461;29;20039;-61
2021/11/29 02:29:15;;;;;;;32.42;17.05;;;6.50;97.50;;;;;;4936510;29;20114;-61
2021/11/29 02:31:47;;;;;;;32.30;16.90;;;6.60;97.60;;;;;;4933967;29;20040;-61
2021/11/29 02:34:16;;;;;;;31.92;17.77;;;6.60;97.60;;;;;;4949534;28;20036;-61
2021/11/29 02:36:42;;;;;;;30.42;16.42;;;6.60;97.60;;;;;;4926892;29;20099;-61
2021/11/29 02:39:09;;;;;;;31.90;16.98;;;6.60;97.60;;;;;;4935181;29;20028;-61
2021/11/29 02:41:35;;;;;;;34.30;16.80;;;6.60;97.60;;;;;;4933339;29;20554;-61
2021/11/29 02:44:01;;;;;;;33.83;17.85;;;6.60;97.60;;;;;;4934444;29;20136;-61
2021/11/29 02:46:27;;;;;;;35.38;18.35;;;6.60;97.60;;;;;;4931884;29;20052;-61
2021/11/29 02:48:53;;;;;;;31.48;17.88;;;6.50;97.60;;;;;;4934418;29;20063;-61
2021/11/29 02:51:26;;;;;;;32.95;16.70;;;6.50;97.60;;;;;;4933354;29;20095;-61
2021/11/29 02:53:59;;;;;;;29.50;16.83;;;6.50;97.60;;;;;;4933884;29;20059;-61
2021/11/29 02:56:25;;;;;;;28.80;15.68;;;6.50;97.60;;;;;;4934641;29;20065;-61
2021/11/29 02:58:51;;;;;;;26.95;14.45;;;6.40;97.60;;;;;;4933431;29;20542;-62
2021/11/29 03:01:17;;;;;;;29.90;14.38;;;6.40;97.60;;;;;;4929464;29;20031;-61
2021/11/29 03:03:51;;;;;;;25.65;13.82;;;6.40;97.50;;;;;;4933721;29;20027;-61
2021/11/29 03:06:18;;;;;;;26.63;13.45;;;6.40;97.60;;;;;;4934786;29;20070;-61
2021/11/29 03:08:45;;;;;;;22.38;12.57;;;6.30;97.60;;;;;;4932554;29;20032;-61
2021/11/29 03:11:12;;;;;;;24.20;13.13;;;6.30;97.60;;;;;;4934039;29;20074;-61
2021/11/29 03:13:39;;;;;;;24.35;12.68;;;6.30;97.50;;;;;;4933833;29;20059;-61
2021/11/29 03:16:05;;;;;;;23.75;12.35;;;6.30;97.50;;;;;;4933096;29;20094;-61
2021/11/29 03:18:33;;;;;;;24.02;12.98;;;6.30;97.50;;;;;;4932264;29;20085;-61
2021/11/29 03:20:59;;;;;;;25.42;12.48;;;6.30;97.50;;;;;;4934226;29;20027;-61
2021/11/29 03:23:24;;;;;;;28.95;13.20;;;6.30;97.40;;;;;;4931484;29;20510;-61
2021/11/29 03:25:50;;;;;;;24.55;12.88;;;6.20;97.60;;;;;;4933952;29;20663;-61
2021/11/29 03:28:16;;;;;;;21.98;12.38;;;6.20;97.40;;;;;;4931897;29;20027;-61
2021/11/29 03:30:41;;;;;;;23.80;12.48;;;6.20;97.50;;;;;;4933510;29;20031;-61
2021/11/29 03:33:07;;;;;;;24.25;13.40;;;6.20;97.50;;;;;;4930600;29;20042;-61
2021/11/29 03:35:35;;;;;;;23.50;13.07;;;6.20;97.60;;;;;;4933269;29;20036;-61
2021/11/29 03:38:02;;;;;;;28.55;13.88;;;6.20;97.60;;;;;;4931577;29;20032;-61
2021/11/29 03:40:27;;;;;;;23.85;12.88;;;6.20;97.60;;;;;;4932976;29;20027;-61
2021/11/29 03:42:53;;;;;;;30.17;14.82;;;6.20;97.60;;;;;;4933482;29;20035;-62
2021/11/29 03:45:18;;;;;;;28.13;14.45;;;6.20;97.70;;;;;;4933640;29;20565;-61
2021/11/29 03:47:44;;;;;;;24.25;13.57;;;6.20;97.70;;;;;;4932460;29;20055;-62
2021/11/29 03:50:10;;;;;;;27.70;14.52;;;6.20;97.70;;;;;;4932155;29;20058;-62
2021/11/29 03:52:35;;;;;;;29.10;15.73;;;6.20;97.70;;;;;;4931848;29;20086;-62
2021/11/29 03:55:01;;;;;;;33.95;17.05;;;6.20;97.70;;;;;;4931949;29;20023;-61
2021/11/29 03:57:26;;;;;;;28.98;16.02;;;6.20;97.70;;;;;;4931347;29;20038;-61
2021/11/29 03:59:52;;;;;;;32.75;16.77;;;6.20;97.70;;;;;;4929350;29;20040;-61
2021/11/29 04:02:18;;;;;;;28.35;15.98;;;6.20;97.80;;;;;;4930866;29;20119;-61
2021/11/29 04:04:43;;;;;;;31.20;15.63;;;6.20;97.80;;;;;;4932976;29;20115;-61
2021/11/29 04:07:09;;;;;;;34.83;16.25;;;6.20;97.90;;;;;;4930904;29;20414;-61
2021/11/29 04:09:35;;;;;;;31.30;16.08;;;6.30;97.90;;;;;;4932872;29;20119;-61
2021/11/29 04:12:02;;;;;;;32.22;17.02;;;6.30;97.90;;;;;;4932094;29;20039;-61
2021/11/29 04:14:28;;;;;;;33.13;16.63;;;6.30;97.90;;;;;;4934090;29;20028;-61
2021/11/29 04:16:54;;;;;;;33.55;18.08;;;6.30;97.90;;;;;;4931477;29;20067;-61
2021/11/29 04:19:19;;;;;;;33.13;17.70;;;6.30;97.90;;;;;;4933953;29;20455;-61
2021/11/29 04:21:46;;;;;;;35.95;17.65;;;6.30;97.90;;;;;;4938893;28;20353;-61
2021/11/29 04:24:13;;;;;;;29.60;16.00;;;6.30;97.90;;;;;;4937626;29;20375;-61
2021/11/29 04:26:40;;;;;;;30.80;16.70;;;6.20;97.90;;;;;;4936032;29;20047;-61
2021/11/29 04:29:16;;;;;;;31.23;17.63;;;6.20;97.90;;;;;;4937527;29;20028;-61
2021/11/29 04:31:42;;;;;;;33.83;16.65;;;6.20;98.10;;;;;;4935969;29;20471;-61
2021/11/29 04:34:08;;;;;;;34.17;17.85;;;6.20;97.80;;;;;;4937382;29;20127;-61
2021/11/29 04:36:34;;;;;;;35.25;17.63;;;6.30;97.90;;;;;;4934676;29;20036;-61
2021/11/29 04:39:00;;;;;;;39.30;17.58;;;6.30;97.80;;;;;;4935730;29;20031;-60
2021/11/29 04:41:26;;;;;;;39.95;19.15;;;6.30;97.80;;;;;;4935681;29;20491;-61
2021/11/29 04:43:52;;;;;;;42.92;19.85;;;6.30;97.90;;;;;;4935665;29;20075;-61
2021/11/29 04:46:18;;;;;;;35.67;18.40;;;6.30;97.90;;;;;;4936906;29;20439;-61
2021/11/29 04:48:44;;;;;;;37.17;18.35;;;6.30;97.90;;;;;;4936023;29;20122;-61
2021/11/29 04:51:10;;;;;;;33.97;17.80;;;6.30;97.90;;;;;;4935395;29;20058;-61
2021/11/29 04:53:36;;;;;;;39.72;19.50;;;6.30;97.90;;;;;;4933658;29;20538;-61
2021/11/29 04:56:02;;;;;;;41.92;19.67;;;6.30;97.90;;;;;;4937313;29;20035;-61
2021/11/29 04:58:28;;;;;;;37.58;19.65;;;6.30;97.90;;;;;;4935469;29;20035;-61
2021/11/29 05:00:54;;;;;;;38.50;18.85;;;6.30;97.90;;;;;;4936637;29;20031;-61
2021/11/29 05:03:20;;;;;;;39.60;19.92;;;6.30;98.00;;;;;;4935932;29;20415;-61
2021/11/29 05:05:46;;;;;;;40.03;20.40;;;6.30;97.90;;;;;;4935389;29;20443;-61
2021/11/29 05:08:11;;;;;;;37.10;18.90;;;6.30;97.90;;;;;;4933445;29;20031;-62
2021/11/29 05:10:37;;;;;;;37.53;19.50;;;6.30;97.90;;;;;;4934763;29;20039;-61
2021/11/29 05:13:03;;;;;;;42.55;21.25;;;6.20;97.90;;;;;;4934608;29;20075;-61
2021/11/29 05:15:28;;;;;;;40.35;20.27;;;6.30;98.00;;;;;;4936216;29;20035;-61
2021/11/29 05:17:54;;;;;;;39.28;19.90;;;6.30;98.00;;;;;;4949868;29;20483;-61
2021/11/29 05:20:20;;;;;;;40.72;20.35;;;6.30;98.00;;;;;;4934872;29;20034;-61
2021/11/29 05:22:45;;;;;;;43.38;19.77;;;6.30;97.90;;;;;;4933036;29;20023;-61
2021/11/29 05:25:11;;;;;;;37.25;19.27;;;6.30;97.90;;;;;;4934070;29;20063;-61
2021/11/29 05:27:37;;;;;;;35.70;18.83;;;6.30;97.90;;;;;;4935090;29;20043;-61
2021/11/29 05:30:04;;;;;;;41.13;19.27;;;6.30;98.10;;;;;;4936425;29;20051;-61
2021/11/29 05:32:30;;;;;;;36.35;18.90;;;6.30;98.10;;;;;;4931841;29;20545;-61
2021/11/29 05:34:56;;;;;;;40.03;19.20;;;6.40;97.80;;;;;;4935244;29;20027;-61
2021/11/29 05:37:22;;;;;;;34.97;19.25;;;6.30;97.80;;;;;;4935091;29;20427;-61
2021/11/29 05:39:49;;;;;;;36.45;19.30;;;6.30;97.80;;;;;;4935542;29;20055;-61
2021/11/29 05:42:15;;;;;;;33.53;17.50;;;6.30;97.80;;;;;;4932003;29;20094;-62
2021/11/29 05:44:41;;;;;;;39.67;19.52;;;6.30;97.70;;;;;;4936095;29;20039;-61
2021/11/29 05:47:06;;;;;;;34.45;18.27;;;6.30;97.80;;;;;;4932569;29;20051;-61
2021/11/29 05:49:32;;;;;;;34.70;17.90;;;6.30;97.70;;;;;;4934879;29;20487;-62
2021/11/29 05:52:00;;;;;;;35.40;17.52;;;6.30;97.70;;;;;;4934173;29;20637;-61
2021/11/29 05:54:26;;;;;;;34.25;18.58;;;6.30;97.70;;;;;;4921438;29;20078;-62
2021/11/29 05:56:51;;;;;;;35.97;19.00;;;6.30;97.60;;;;;;4930135;29;20035;-62
2021/11/29 05:59:20;;;;;;;43.42;19.42;;;6.30;97.70;;;;;;4934685;29;20496;-61
2021/11/29 06:01:46;;;;;;;35.55;18.55;;;6.30;97.60;;;;;;4934326;29;20076;-62
2021/11/29 06:04:12;;;;;;;37.72;19.35;;;6.20;97.70;;;;;;4935837;29;20024;-62
2021/11/29 06:06:37;;;;;;;38.60;18.92;;;6.20;97.80;;;;;;4934516;29;20072;-62
2021/11/29 06:09:03;;;;;;;35.83;18.70;;;6.20;97.80;;;;;;4935675;29;20038;-62
2021/11/29 06:11:29;;;;;;;35.67;18.17;;;6.20;97.80;;;;;;4934740;29;20076;-62
2021/11/29 06:13:54;;;;;;;35.38;17.88;;;6.20;97.80;;;;;;4932230;29;20031;-62
2021/11/29 06:16:20;;;;;;;38.63;19.92;;;6.10;97.80;;;;;;4934602;29;20040;-62
2021/11/29 06:18:46;;;;;;;37.70;18.45;;;6.20;97.80;;;;;;4934796;29;20024;-62
2021/11/29 06:21:11;;;;;;;35.90;18.77;;;6.20;97.80;;;;;;4935200;29;20491;-62
2021/11/29 06:23:38;;;;;;;35.65;18.75;;;6.20;98.00;;;;;;4934389;29;20035;-62
2021/11/29 06:26:05;;;;;;;34.58;18.92;;;6.20;97.70;;;;;;4935208;29;20613;-61
2021/11/29 06:28:31;;;;;;;33.33;16.85;;;6.10;97.70;;;;;;4932988;29;20058;-62
2021/11/29 06:30:56;;;;;;;35.05;19.25;;;6.10;97.70;;;;;;4934453;29;20055;-61
2021/11/29 06:33:22;;;;;;;33.78;17.88;;;6.20;97.70;;;;;;4933829;29;20071;-62
2021/11/29 06:35:49;;;;;;;35.28;19.23;;;6.20;97.90;;;;;;4934320;29;20040;-62
2021/11/29 06:38:15;;;;;;;35.95;18.33;;;6.10;97.70;;;;;;4934023;29;20510;-63
2021/11/29 06:40:47;;;;;;;34.72;17.85;;;6.10;97.70;;;;;;4935135;29;20132;-62
2021/11/29 06:43:13;;;;;;;33.22;17.45;;;6.00;97.70;;;;;;4929130;29;20399;-62
2021/11/29 06:45:38;;;;;;;33.85;18.10;;;6.00;97.70;;;;;;4928322;29;20036;-62
2021/11/29 06:48:04;;;;;;;32.45;17.92;;;6.00;97.90;;;;;;4933236;29;20381;-62
2021/11/29 06:50:30;;;;;;;32.47;17.85;;;6.00;97.70;;;;;;4934279;29;20534;-62
2021/11/29 06:52:56;;;;;;;30.17;16.85;;;6.00;97.70;;;;;;4931537;29;20042;-62
2021/11/29 06:55:21;;;;;;;35.53;17.15;;;6.00;97.70;;;;;;4934540;29;20099;-62
2021/11/29 06:57:48;;;;;;;30.25;15.98;;;6.00;97.70;;;;;;4931866;29;20036;-62
2021/11/29 07:00:16;;;;;;;31.70;19.35;;;6.10;97.70;;;;;;4929721;29;20074;-62
2021/11/29 07:02:43;;;;;;;31.63;16.45;;;5.90;97.60;;;;;;4931377;29;20410;-62
2021/11/29 07:05:10;;;;;;;31.23;16.52;;;5.90;97.70;;;;;;4934076;29;20039;-62
2021/11/29 07:07:36;;;;;;;32.30;16.92;;;6.00;97.70;;;;;;4947489;29;20051;-62
2021/11/29 07:10:03;;;;;;;30.65;16.25;;;5.90;97.70;;;;;;4933900;29;20020;-62
2021/11/29 07:12:29;;;;;;;33.38;16.38;;;5.90;97.60;;;;;;4932379;29;20035;-62
2021/11/29 07:14:55;;;;;;;31.15;15.93;;;5.90;97.60;;;;;;4934390;29;20495;-62
2021/11/29 07:17:20;;;;;;;29.85;15.95;;;5.90;97.60;;;;;;4930493;29;20732;-62
2021/11/29 07:19:52;;;;;;;30.95;15.95;;;5.90;97.60;;;;;;4934707;29;20074;-61
2021/11/29 07:22:19;;;;;;;27.52;15.20;;;5.90;97.60;;;;;;4929470;29;20064;-61
2021/11/29 07:24:45;;;;;;;30.65;16.73;;;5.90;97.70;;;;;;4932370;29;20032;-61
2021/11/29 07:27:11;;;;;;;28.50;15.27;;;5.90;97.70;;;;;;4930949;29;20082;-61
2021/11/29 07:29:37;;;;;;;29.25;16.42;;;5.80;97.70;;;;;;4930533;29;20179;-63
2021/11/29 07:32:03;;;;;;;25.60;14.63;;;5.80;97.60;;;;;;4930866;29;20114;-64
2021/11/29 07:34:28;;;;;;;28.75;15.77;;;5.80;97.80;;;;;;4929719;29;20024;-64
2021/11/29 07:36:54;;;;;;;26.75;14.38;;;5.80;97.60;;;;;;4931847;29;20510;-63
2021/11/29 07:39:20;;;;;;;28.00;15.30;;;5.70;97.60;;;;;;4929537;29;20031;-63
2021/11/29 07:41:45;;;;;;;26.88;14.65;;;5.70;97.60;;;;;;4930780;29;20448;-63
2021/11/29 07:44:11;;;;;;;27.13;14.95;;;5.80;97.60;;;;;;4932705;29;20032;-63
2021/11/29 07:46:37;;;;;;;28.13;16.05;;;5.80;97.60;;;;;;4929929;29;20048;-63
2021/11/29 07:49:03;;;;;;;30.30;15.38;;;5.80;97.60;;;;;;4931733;29;20106;-64
2021/11/29 07:51:29;;;;;;;27.17;14.45;;;5.70;97.60;;;;;;4930957;29;20143;-63
2021/11/29 07:53:55;;;;;;;28.90;15.68;;;5.80;97.70;;;;;;4933495;29;20102;-63
2021/11/29 07:56:21;;;;;;;27.30;14.38;;;5.80;97.70;;;;;;4921846;29;20390;-63
2021/11/29 07:58:47;;;;;;;28.48;16.35;;;5.80;97.70;;;;;;4922141;29;20191;-63
2021/11/29 08:01:12;;;;;;;25.25;15.00;;;5.70;97.60;;;;;;4923024;29;20024;-63
2021/11/29 08:03:39;;;;;;;25.45;14.10;;;5.70;97.70;;;;;;4931146;29;20076;-63
2021/11/29 08:06:04;;;;;;;28.42;15.80;;;5.70;97.80;;;;;;4932331;29;20047;-63
2021/11/29 08:08:30;;;;;;;28.10;15.77;;;5.70;97.80;;;;;;4939362;28;20031;-63
2021/11/29 08:10:56;;;;;;;29.48;15.90;;;5.80;97.80;;;;;;4932190;29;20027;-63
2021/11/29 08:13:21;;;;;;;28.40;15.25;;;5.80;97.80;;;;;;4930354;29;20044;-62
2021/11/29 08:15:47;;;;;;;29.77;16.25;;;5.80;97.70;;;;;;4926826;29;22351;-63
2021/11/29 08:18:13;;;;;;;30.05;16.20;;;5.80;97.70;;;;;;4930528;29;20030;-63
2021/11/29 08:20:39;;;;;;;30.25;16.40;;;5.80;97.70;;;;;;4930186;29;20032;-63
2021/11/29 08:23:05;;;;;;;31.15;16.10;;;5.80;97.60;;;;;;4930411;29;20031;-63
2021/11/29 08:25:30;;;;;;;34.88;17.40;;;5.80;97.70;;;;;;4928804;29;20031;-63
2021/11/29 08:27:56;;;;;;;28.80;15.75;;;5.70;97.80;;;;;;4923505;29;20064;-63
2021/11/29 08:30:25;;;;;;;30.83;17.00;;;5.70;97.80;;;;;;4923374;29;20030;-63
2021/11/29 08:32:51;;;;;;;32.95;16.55;;;5.80;97.80;;;;;;4930953;29;20066;-62
2021/11/29 08:35:18;;;;;;;29.73;15.88;;;5.80;97.80;;;;;;4932099;29;20028;-62
2021/11/29 08:37:49;;;;;;;30.92;16.88;;;5.70;97.80;;;;;;4929100;29;20086;-62
2021/11/29 08:40:16;;;;;;;26.98;15.45;;;5.70;97.90;;;;;;4932578;29;20375;-62
2021/11/29 08:42:42;;;;;;;34.00;18.90;;;5.70;98.00;;;;;;4930671;29;20023;-63
2021/11/29 08:45:09;;;;;;;29.40;15.48;;;5.70;98.20;;;;;;4930075;29;20036;-63
2021/11/29 08:47:34;;;;;;;31.05;16.70;;;5.70;98.10;;;;;;4939477;29;20063;-63
2021/11/29 08:50:04;;;;;;;31.98;17.33;;;5.70;98.10;;;;;;4930989;29;20094;-63
2021/11/29 08:52:33;;;;;;;31.05;16.13;;;5.80;98.10;;;;;;4929565;29;20469;-63
2021/11/29 08:55:01;;;;;;;29.83;15.95;;;5.80;98.10;;;;;;4930246;29;20744;-63
2021/11/29 08:57:26;;;;;;;29.63;17.05;;;5.80;98.10;;;;;;4930849;29;20023;-63
2021/11/29 08:59:52;;;;;;;32.88;17.70;;;5.80;98.10;;;;;;4930320;29;20098;-63
2021/11/29 09:02:18;;;;;;;28.65;15.95;;;5.80;98.10;;;;;;4928338;29;20095;-63
2021/11/29 09:04:43;;;;;;;31.48;16.05;;;5.80;98.10;;;;;;4930477;29;20119;-63
2021/11/29 09:07:09;;;;;;;30.20;17.08;;;5.80;98.20;;;;;;4929704;29;20071;-63
2021/11/29 09:09:35;;;;;;;28.90;16.73;;;5.80;98.30;;;;;;4930965;29;20050;-62
2021/11/29 09:12:02;;;;;;;32.75;17.83;;;5.80;98.20;;;;;;4933638;29;20567;-63
2021/11/29 09:14:28;;;;;;;29.70;16.45;;;5.90;98.30;;;;;;4928145;29;20031;-62
2021/11/29 09:16:56;;;;;;;33.55;16.25;;;5.90;98.20;;;;;;4927979;29;20035;-62
2021/11/29 09:19:22;;;;;;;29.67;15.48;;;5.90;98.30;;;;;;4934138;29;20038;-62
2021/11/29 09:21:47;;;;;;;31.92;17.27;;;6.00;98.10;;;;;;4934252;29;20028;-60
2021/11/29 09:24:13;;;;;;;27.08;15.65;;;6.00;98.10;;;;;;4933152;29;20095;-62
2021/11/29 09:26:39;;;;;;;29.65;16.05;;;6.10;98.20;;;;;;4932602;29;20048;-62
2021/11/29 09:29:04;;;;;;;29.45;15.52;;;6.10;98.10;;;;;;4935302;29;20474;-60
2021/11/29 09:31:30;;;;;;;27.92;15.02;;;6.10;98.10;;;;;;4934657;29;20030;-61
2021/11/29 09:33:56;;;;;;;28.02;14.32;;;6.20;98.10;;;;;;4936396;29;20031;-61
2021/11/29 09:36:21;;;;;;;26.48;14.48;;;6.20;98.10;;;;;;4935113;29;20098;-61
2021/11/29 09:38:47;;;;;;;26.95;14.65;;;6.20;98.00;;;;;;4934132;29;20367;-61
2021/11/29 09:41:13;;;;;;;28.30;14.55;;;6.20;97.90;;;;;;4932999;29;20487;-61
2021/11/29 09:43:40;;;;;;;32.90;16.45;;;6.20;97.80;;;;;;4933481;29;20538;-62
2021/11/29 09:46:08;;;;;;;27.33;16.08;;;6.30;97.80;;;;;;4933576;29;20103;-61
2021/11/29 09:48:34;;;;;;;31.55;15.98;;;6.20;97.80;;;;;;4932565;29;20074;-61
2021/11/29 09:51:00;;;;;;;27.08;14.65;;;6.30;97.80;;;;;;4933755;29;20028;-62
2021/11/29 09:53:30;;;;;;;27.17;14.48;;;6.30;97.80;;;;;;4932293;29;20038;-61
2021/11/29 09:55:57;;;;;;;32.80;16.70;;;6.30;97.80;;;;;;4935964;29;20123;-61
2021/11/29 09:58:23;;;;;;;31.38;14.75;;;6.20;97.80;;;;;;4923344;29;20035;-61
2021/11/29 10:00:51;;;;;;;27.73;15.73;;;6.20;97.70;;;;;;4936919;28;20087;-63
2021/11/29 10:03:18;;;;;;;32.00;17.67;;;6.10;97.80;;;;;;4931796;29;20028;-62
2021/11/29 10:05:44;;;;;;;34.70;17.60;;;6.10;97.90;;;;;;4932532;29;20032;-61
2021/11/29 10:08:35;;;;;;;30.58;16.65;;;6.00;98.00;;;;;;4932741;29;20035;-62
2021/11/29 10:11:09;;;;;;;31.83;16.05;;;6.00;98.00;;;;;;4933927;29;20503;-62
2021/11/29 10:13:49;;;;;;;28.73;15.43;;;6.00;98.10;;;;;;4929126;29;20052;-62
2021/11/29 10:16:34;;;;;;;30.13;15.75;;;6.10;98.30;;;;;;4945880;29;20499;-61
2021/11/29 10:19:01;;;;;;;30.52;17.60;;;6.20;98.20;;;;;;4929361;29;20107;-62
2021/11/29 10:21:27;;;;;;;28.40;14.82;;;6.20;98.20;;;;;;4933049;29;20032;-63
2021/11/29 10:23:57;;;;;;;31.35;15.63;;;6.20;98.10;;;;;;4933133;29;20079;-62
2021/11/29 10:26:30;;;;;;;29.05;15.05;;;6.20;98.10;;;;;;4933444;29;20060;-62
2021/11/29 10:28:56;;;;;;;31.42;14.50;;;6.20;98.10;;;;;;4927310;29;20054;-63
2021/11/29 10:31:25;;;;;;;32.45;15.82;;;6.20;98.10;;;;;;4932478;29;20031;-62
2021/11/29 10:34:07;;;;;;;30.70;15.95;;;6.20;98.20;;;;;;4932352;29;20031;-61
2021/11/29 10:36:39;;;;;;;29.20;15.57;;;6.30;98.20;;;;;;4932336;29;20032;-64
2021/11/29 10:39:14;;;;;;;27.55;14.63;;;6.30;98.20;;;;;;4931535;29;20045;-64
2021/11/29 10:41:49;;;;;;;29.55;16.90;;;6.30;98.20;;;;;;4928707;29;20035;-64
2021/11/29 10:44:21;;;;;;;24.23;13.85;;;6.30;98.10;;;;;;4925678;29;20133;-64
2021/11/29 10:46:50;;;;;;;27.77;14.63;;;6.30;98.00;;;;;;4929860;29;20055;-64
2021/11/29 10:49:20;;;;;;;23.98;13.35;;;6.30;98.10;;;;;;4930930;29;20109;-64
2021/11/29 10:51:48;;;;;;;24.95;14.05;;;6.40;98.10;;;;;;4929214;29;20064;-65
2021/11/29 10:54:17;;;;;;;29.13;14.52;;;6.40;98.00;;;;;;4929022;28;20032;-64
2021/11/29 10:56:44;;;;;;;30.08;14.25;;;6.40;97.80;;;;;;4927309;29;20055;-65
2021/11/29 10:59:13;;;;;;;25.63;14.02;;;6.30;97.90;;;;;;4933139;29;20064;-64
2021/11/29 11:01:48;;;;;;;31.85;15.15;;;6.40;98.10;;;;;;4931370;29;20032;-64
2021/11/29 11:04:20;;;;;;;;;;;6.50;98.00;;;;;;4933486;29;20032;-64
2021/11/29 11:06:51;;;;;;;24.08;12.88;;;6.50;98.10;;;;;;4929835;29;19927;-64
2021/11/29 11:09:21;;;;;;;24.90;13.57;;;6.50;97.90;;;;;;4932870;29;20043;-64
2021/11/29 11:11:49;;;;;;;27.02;14.38;;;6.60;97.70;;;;;;4935264;29;20035;-65
2021/11/29 11:14:19;;;;;;;24.27;13.88;;;6.50;97.70;;;;;;4934415;29;20032;-64
2021/11/29 11:16:50;;;;;;;24.58;13.02;;;6.50;97.80;;;;;;4933049;29;20395;-67
2021/11/29 11:19:24;;;;;;;23.48;12.55;;;6.60;97.80;;;;;;4940423;29;20035;-66
2021/11/29 11:21:50;;;;;;;24.88;12.82;;;6.60;97.60;;;;;;4936247;28;20039;-66
2021/11/29 11:24:28;;;;;;;24.05;13.73;;;6.70;97.60;;;;;;4935182;29;20471;-65
2021/11/29 11:26:57;;;;;;;26.02;13.35;;;6.80;97.60;;;;;;4926638;29;20050;-65
2021/11/29 11:29:38;;;;;;;22.20;11.50;;;6.80;97.50;;;;;;4951948;28;20031;-65
2021/11/29 11:32:08;;;;;;;20.15;11.50;;;6.90;97.50;;;;;;4939983;28;20028;-65
2021/11/29 11:34:38;;;;;;;22.80;12.27;;;6.90;97.10;;;;;;4934158;29;20069;-65
2021/11/29 11:37:04;;;;;;;23.58;12.63;;;6.90;97.30;;;;;;4932304;29;20603;-65
2021/11/29 11:39:30;;;;;;;25.88;14.52;;;6.90;97.20;;;;;;4931985;29;20122;-64
2021/11/29 11:41:56;;;;;;;18.75;10.20;;;6.90;96.80;;;;;;4933094;29;20163;-65
2021/11/29 11:44:23;;;;;;;22.58;11.85;;;6.90;96.90;;;;;;4932274;29;20050;-65
2021/11/29 11:46:54;;;;;;;21.23;10.25;;;6.90;96.80;;;;;;4932136;29;20061;-64
2021/11/29 11:49:21;;;;;;;21.50;10.93;;;6.90;96.80;;;;;;4940291;29;20039;-64
2021/11/29 11:51:47;;;;;;;18.17;10.10;;;6.80;96.70;;;;;;4933055;29;20350;-65
2021/11/29 11:54:14;;;;;;;20.58;9.55;;;6.90;96.70;;;;;;4934139;29;20123;-65
2021/11/29 11:56:40;;;;;;;20.92;10.93;;;6.90;96.70;;;;;;4941694;29;20032;-65
2021/11/29 11:59:14;;;;;;;19.85;10.95;;;7.00;96.60;;;;;;4914588;29;20101;-65
2021/11/29 12:01:45;;;;;;;19.55;10.73;;;6.90;96.40;;;;;;4926020;29;20050;-64
2021/11/29 12:04:16;;;;;;;20.38;9.85;;;6.90;96.40;;;;;;4944601;29;20398;-64
2021/11/29 12:06:47;;;;;;;17.50;9.75;;;6.90;96.20;;;;;;4930854;29;20043;-64
2021/11/29 12:09:13;;;;;;;18.60;10.50;;;6.90;96.20;;;;;;4927905;29;20059;-64
2021/11/29 12:11:44;;;;;;;20.25;11.73;;;6.90;96.40;;;;;;4931328;29;20043;-64
2021/11/29 12:14:21;;;;;;;18.23;9.68;;;7.00;96.30;;;;;;4930026;29;20558;-66
2021/11/29 12:17:00;;;;;;;19.67;9.60;;;7.00;96.20;;;;;;4932058;29;20032;-65
2021/11/29 12:19:30;;;;;;;18.73;9.75;;;7.00;96.00;;;;;;4932369;29;20039;-65
2021/11/29 12:21:58;;;;;;;18.50;10.48;;;7.00;96.00;;;;;;4930777;29;20032;-65
2021/11/29 12:24:46;;;;;;;19.35;10.30;;;7.00;96.00;;;;;;4933136;29;20024;-65
2021/11/29 12:27:14;;;;;;;16.65;9.35;;;6.90;95.70;;;;;;4931505;29;20131;-65
2021/11/29 12:29:47;;;;;;;17.05;8.90;;;6.70;95.60;;;;;;4925222;29;20115;-65
2021/11/29 12:32:15;;;;;;;17.77;8.75;;;6.70;95.60;;;;;;4929935;29;20040;-65
2021/11/29 12:34:43;;;;;;;18.27;9.20;;;6.70;95.70;;;;;;4932923;29;20027;-66
2021/11/29 12:37:09;;;;;;;17.38;9.80;;;6.60;95.70;;;;;;4930340;29;20097;-65